Flood From: 24-02-2018 06:00 Until: 25-02-2018 06:00 warning for: Flood Level: Yellow info button

Although rather usual in this region, locally or potentially dangerous phenomena are expected. (such as local winds, summer thunderstorms, rising streams or high waves) Be aware and pay attention to the latest weather updates, especially if you carry out activities exposed to weather or close to a stream or shoreline. 


Meteo18 Weather Cam more information Meteo18 Weather Cam


Thunder radar more information blitzortung!


Rain radar more information rain snow radar


Visit our other weather sites:

Template documentation
and downloads

And another site



Weather Underground History page Text

Daily Summary for March 26, 2017 Units:  Metric    English   Both
« Previous Day
Next Day »
Daily Weekly Monthly Yearly Custom
  High: Low: Average:
Temperature: -17.8 °C -12.9 °C -10.9 °C
Dew Point: -17.8 °C -15.2 °C -14.4 °C
Humidity: Humidity % 44 % 67 %
Wind Speed: 0 km/h 0 km/h 2.9 km/h
Wind Gust: 0 km/h - -
Wind:- - ESE
Pressure: 0 hPa 34462.7 hPa -
Precipitation: 0 mm    
Historical Graphs
 
 
Tabular Data for March 26, 2017
Time Temperature Dew Point Pressure Wind Wind Speed Wind Gust Humidity Rainfall Rate (Hourly)
-17.8 °C -17.8 °C 0 hPa Calm     Humidity % 0 mm
00:02 -12.1 °C -13.6 °C 34462.7 hPa Calm   2.6 km/h 83 % 0 mm
00:07 -12.1 °C -13.7 °C 34462.7 hPa East 7.7 km/h 7.7 km/h 82 % 0 mm
00:12 -11.9 °C -13.6 °C 34462.7 hPa ESE 2.6 km/h 5.1 km/h 82 % 0 mm
00:17 -11.9 °C -13.6 °C 34462.7 hPa Calm   7.7 km/h 81 % 0 mm
00:22 -11.9 °C -13.6 °C 34462.7 hPa Calm   7.7 km/h 81 % 0 mm
00:27 -11.9 °C -13.6 °C 34476.3 hPa East 2.6 km/h 7.7 km/h 81 % 0 mm
00:37 -11.8 °C -13.8 °C 34462.7 hPa ESE 2.6 km/h 7.7 km/h 79 % 0 mm
00:42 -11.8 °C -13.9 °C 34476.3 hPa East 2.6 km/h 7.7 km/h 78 % 0 mm
00:47 -11.8 °C -13.9 °C 34476.3 hPa East 2.6 km/h 10.3 km/h 78 % 0 mm
00:57 -11.9 °C -13.9 °C 34462.7 hPa Calm   10.3 km/h 78 % 0 mm
01:02 -11.9 °C -13.9 °C 34462.7 hPa Calm   7.7 km/h 79 % 0 mm
01:12 -12.1 °C -14 °C 34462.7 hPa Calm   5.1 km/h 79 % 0 mm
01:17 -12.1 °C -14 °C 34462.7 hPa East 2.6 km/h 2.6 km/h 79 % 0 mm
01:22 -12.1 °C -14 °C 34476.3 hPa Calm   10.3 km/h 79 % 0 mm
01:32 -12.1 °C -14.1 °C 34476.3 hPa Calm   10.3 km/h 79 % 0 mm
01:42 -12.3 °C -14.2 °C 34476.3 hPa Calm   10.3 km/h 79 % 0 mm
01:52 -12.4 °C -14.1 °C 34476.3 hPa Calm   10.3 km/h 81 % 0 mm
01:57 -12.4 °C -14.2 °C 34476.3 hPa Calm   10.3 km/h 81 % 0 mm
03:02 -12.4 °C -14.2 °C 34476.3 hPa Calm   7.7 km/h 81 % 0 mm
03:12 -12.6 °C -14.2 °C 34476.3 hPa Calm   5.1 km/h 82 % 0 mm
03:17 -12.7 °C -14.3 °C 34476.3 hPa Calm   5.1 km/h 82 % 0 mm
03:22 -12.7 °C -14.3 °C 34476.3 hPa Calm   2.6 km/h 82 % 0 mm
03:32 -12.7 °C -14.2 °C 34476.3 hPa Calm   5.1 km/h 83 % 0 mm
03:37 -12.7 °C -14.2 °C 34476.3 hPa Calm   5.1 km/h 83 % 0 mm
03:42 -12.7 °C -14.3 °C 34476.3 hPa Calm   5.1 km/h 82 % 0 mm
03:47 -12.7 °C -14.3 °C 34476.3 hPa Calm   2.6 km/h 82 % 0 mm
03:52 -12.7 °C -14.3 °C 34486.4 hPa Calm   2.6 km/h 82 % 0 mm
03:57 -12.7 °C -14.3 °C 34486.4 hPa Calm   2.6 km/h 82 % 0 mm
04:02 -12.7 °C -14.3 °C 34486.4 hPa Calm   2.6 km/h 82 % 0 mm
04:12 -12.8 °C -14.4 °C 34486.4 hPa Calm     82 % 0 mm
04:17 -12.7 °C -14.3 °C 34486.4 hPa Calm     82 % 0 mm
04:22 -12.7 °C -14.3 °C 34486.4 hPa Calm     82 % 0 mm
04:27 -12.8 °C -14.4 °C 34486.4 hPa Calm     82 % 0 mm
04:32 -12.8 °C -14.4 °C 34486.4 hPa Calm     82 % 0 mm
04:42 -12.8 °C -14.3 °C 34486.4 hPa Calm     83 % 0 mm
04:52 -12.7 °C -14.3 °C 34486.4 hPa Calm   2.6 km/h 82 % 0 mm
04:57 -12.7 °C -14.3 °C 34486.4 hPa Calm   2.6 km/h 82 % 0 mm
05:02 -12.7 °C -14.3 °C 34486.4 hPa Calm   2.6 km/h 82 % 0 mm
05:12 -12.7 °C -14.2 °C 34486.4 hPa Calm   2.6 km/h 83 % 0 mm
05:22 -12.8 °C -14.3 °C 34486.4 hPa Calm     83 % 0 mm
05:27 -12.9 °C -14.4 °C 34476.3 hPa Calm     83 % 0 mm
05:32 -12.8 °C -14.3 °C 34486.4 hPa Calm     83 % 0 mm
05:42 -12.8 °C -14.3 °C 34476.3 hPa Calm     83 % 0 mm
05:47 -12.8 °C -14.3 °C 34476.3 hPa East 2.6 km/h   83 % 0 mm
05:52 -12.8 °C -14.3 °C 34476.3 hPa Calm   2.6 km/h 83 % 0 mm
06:02 -12.8 °C -14.3 °C 34476.3 hPa Calm   2.6 km/h 83 % 0 mm
06:12 -12.8 °C -14.4 °C 34476.3 hPa Calm   2.6 km/h 82 % 0 mm
06:17 -12.8 °C -14.4 °C 34476.3 hPa Calm   2.6 km/h 82 % 0 mm
06:22 -12.8 °C -14.4 °C 34476.3 hPa Calm     82 % 0 mm
06:32 -12.8 °C -14.4 °C 34476.3 hPa Calm     82 % 0 mm
06:37 -12.8 °C -14.4 °C 34476.3 hPa Calm     82 % 0 mm
06:42 -12.9 °C -14.5 °C 34476.3 hPa Calm     82 % 0 mm
06:47 -12.8 °C -14.4 °C 34476.3 hPa Calm     82 % 0 mm
06:52 -12.8 °C -14.4 °C 34476.3 hPa Calm     82 % 0 mm
07:02 -12.9 °C -14.5 °C 34476.3 hPa Calm     82 % 0 mm
07:12 -12.9 °C -14.4 °C 34486.4 hPa Calm     83 % 0 mm
07:17 -12.9 °C -14.4 °C 34486.4 hPa Calm     83 % 0 mm
07:22 -12.9 °C -14.4 °C 34486.4 hPa Calm     83 % 0 mm
07:32 -12.9 °C -14.6 °C 34486.4 hPa Calm     82 % 0 mm
07:37 -12.9 °C -14.6 °C 34486.4 hPa Calm     82 % 0 mm
07:42 -12.9 °C -14.5 °C 34496.6 hPa Calm     82 % 0 mm
07:47 -12.9 °C -14.6 °C 34496.6 hPa Calm     81 % 0 mm
07:52 -12.9 °C -14.5 °C 34496.6 hPa Calm     82 % 0 mm
08:02 -12.9 °C -14.4 °C 34496.6 hPa Calm     83 % 0 mm
08:12 -12.9 °C -14.5 °C 34510.1 hPa Calm     82 % 0 mm
08:17 -12.9 °C -14.4 °C 34510.1 hPa Calm     84 % 0 mm
08:22 -12.9 °C -14.4 °C 34510.1 hPa Calm     84 % 0 mm
08:32 -12.9 °C -14.4 °C 34510.1 hPa Calm     83 % 0 mm
08:37 -12.8 °C -14.3 °C 34510.1 hPa Calm     84 % 0 mm
08:42 -12.8 °C -14.1 °C 34520.3 hPa Calm     86 % 0 mm
08:52 -12.8 °C -14.2 °C 34520.3 hPa Calm     85 % 0 mm
09:02 -12.7 °C -14.2 °C 34533.8 hPa Calm     83 % 0 mm
09:07 -12.6 °C -14.1 °C 34533.8 hPa Calm     83 % 0 mm
09:12 -12.6 °C -14.1 °C 34533.8 hPa Calm     83 % 0 mm
09:17 -12.6 °C -14.2 °C 34533.8 hPa Calm     82 % 0 mm
09:22 -12.4 °C -14.2 °C 34533.8 hPa Calm     81 % 0 mm
09:32 -12.4 °C -14.2 °C 34533.8 hPa Calm     80 % 0 mm
09:42 -12.3 °C -14.2 °C 34533.8 hPa Calm   5.1 km/h 79 % 0 mm
09:47 -12.2 °C -14.1 °C 34533.8 hPa Calm   5.1 km/h 80 % 0 mm
09:52 -12.2 °C -14.2 °C 34544 hPa Calm   5.1 km/h 79 % 0 mm
09:57 -12.2 °C -14.1 °C 34544 hPa Calm   2.6 km/h 79 % 0 mm
10:02 -12.1 °C -14.1 °C 34544 hPa Calm   2.6 km/h 79 % 0 mm
10:07 -12.1 °C -14.3 °C 34544 hPa Calm   2.6 km/h 77 % 0 mm
10:12 -12.1 °C -14.2 °C 34544 hPa Calm   2.6 km/h 77 % 0 mm
10:22 -12.1 °C -14.4 °C 34544 hPa SSE 7.7 km/h 7.7 km/h 75 % 0 mm
10:27 -12.1 °C -14.5 °C 34544 hPa South 7.7 km/h 10.3 km/h 74 % 0 mm
10:32 -12.1 °C -14.3 °C 34544 hPa South 5.1 km/h 10.3 km/h 76 % 0 mm
10:37 -12.1 °C -14.4 °C 34554.1 hPa SSE 5.1 km/h 12.9 km/h 75 % 0 mm
10:42 -12 °C -14.2 °C 34554.1 hPa South 2.6 km/h 12.9 km/h 77 % 0 mm
10:47 -11.9 °C -14.2 °C 34554.1 hPa South 7.7 km/h 12.9 km/h 76 % 0 mm
10:52 -11.9 °C -14.3 °C 34554.1 hPa South 5.1 km/h 12.9 km/h 75 % 0 mm
10:57 -12 °C -14.4 °C 34554.1 hPa South 7.7 km/h 12.9 km/h 74 % 0 mm
11:02 -11.9 °C -14.3 °C 34554.1 hPa SSE 5.1 km/h 12.9 km/h 75 % 0 mm
11:12 -11.8 °C -14.2 °C 34554.1 hPa SSE 2.6 km/h 12.9 km/h 75 % 0 mm
11:17 -11.8 °C -14.1 °C 34554.1 hPa South 2.6 km/h 12.9 km/h 76 % 0 mm
11:22 -11.7 °C -14.2 °C 34567.7 hPa ESE 2.6 km/h 12.9 km/h 74 % 0 mm
11:32 -11.5 °C -14.2 °C 34567.7 hPa SE 10.3 km/h 12.9 km/h 72 % 0 mm
11:37 -11.4 °C -13.9 °C 34567.7 hPa SE 2.6 km/h 12.9 km/h 74 % 0 mm
11:42 -11.3 °C -14.1 °C 34567.7 hPa SE 5.1 km/h 12.9 km/h 72 % 0 mm
11:47 -11.3 °C -14 °C 34567.7 hPa SSE 5.1 km/h 12.9 km/h 72 % 0 mm
11:52 -11.2 °C -14 °C 34567.7 hPa SSE 5.1 km/h 12.9 km/h 71 % 0 mm
12:02 -10.9 °C -13.8 °C 34567.7 hPa SSW 2.6 km/h 10.3 km/h 70 % 0 mm
12:12 -10.6 °C -13.9 °C 34567.7 hPa SSE 2.6 km/h 10.3 km/h 67 % 0 mm
12:17 -10.4 °C -13.7 °C 34567.7 hPa SSW 5.1 km/h 10.3 km/h 68 % 0 mm
12:22 -10.4 °C -13.9 °C 34567.7 hPa Calm   10.3 km/h 65 % 0 mm
12:27 -10.3 °C -13.9 °C 34567.7 hPa SE 2.6 km/h 10.3 km/h 65 % 0 mm
12:32 -10.1 °C -13.9 °C 34567.7 hPa Calm   10.3 km/h 63 % 0 mm
12:37 -10.1 °C -14.1 °C 34567.7 hPa WSW 7.7 km/h 10.3 km/h 62 % 0 mm
12:42 -10.1 °C -13.8 °C 34567.7 hPa ENE 7.7 km/h 10.3 km/h 64 % 0 mm
12:47 -10.1 °C -13.8 °C 34567.7 hPa Calm   10.3 km/h 64 % 0 mm
12:52 -10 °C -14 °C 34567.7 hPa Calm   10.3 km/h 62 % 0 mm
12:57 -9.8 °C -13.5 °C 34567.7 hPa NNE 2.6 km/h 12.9 km/h 64 % 0 mm
13:02 -9.8 °C -13.9 °C 34567.7 hPa Calm   12.9 km/h 61 % 0 mm
13:12 -9.5 °C -14.6 °C 34567.7 hPa ESE 5.1 km/h 7.7 km/h 54 % 0 mm
13:17 -9.4 °C -14.9 °C 34554.1 hPa Calm   7.7 km/h 52 % 0 mm
13:22 -9.3 °C -14.3 °C 34554.1 hPa NE 2.6 km/h 7.7 km/h 55 % 0 mm
13:32 -9.5 °C -14.6 °C 34554.1 hPa ENE 10.3 km/h 20.8 km/h 54 % 0 mm
13:37 -9.5 °C -14.3 °C 34554.1 hPa NNE 10.3 km/h 25.9 km/h 56 % 0 mm
13:42 -9.6 °C -14.7 °C 34554.1 hPa NE 7.7 km/h 25.9 km/h 54 % 0 mm
13:47 -9.5 °C -14.5 °C 34554.1 hPa East 5.1 km/h 31.1 km/h 55 % 0 mm
13:52 -9.3 °C -14.2 °C 34554.1 hPa ENE 10.3 km/h 31.1 km/h 56 % 0 mm
13:57 -9.3 °C -14.2 °C 34554.1 hPa ENE 18.2 km/h 31.1 km/h 56 % 0 mm
14:02 -9.4 °C -14.7 °C 34554.1 hPa ENE 23.3 km/h 31.1 km/h 53 % 0 mm
14:12 -9.3 °C -14.9 °C 34544 hPa ENE 7.7 km/h 31.1 km/h 51 % 0 mm
14:17 -9.3 °C -14.7 °C 34544 hPa NE 7.7 km/h 25.9 km/h 52 % 0 mm
14:22 -9.3 °C -14.7 °C 34544 hPa ESE 7.7 km/h 25.9 km/h 52 % 0 mm
14:32 -9.1 °C -14.9 °C 34544 hPa East 18.2 km/h 18.2 km/h 50 % 0 mm
14:37 -9.1 °C -14.7 °C 34544 hPa ESE 5.1 km/h 23.3 km/h 51 % 0 mm
14:42 -8.9 °C -15.2 °C 34544 hPa SSW 5.1 km/h 23.3 km/h 47 % 0 mm
14:47 -8.9 °C -15.2 °C 34544 hPa ESE 2.6 km/h 23.3 km/h 47 % 0 mm
14:52 -8.9 °C -15.2 °C 34544 hPa Calm   20.8 km/h 47 % 0 mm
14:57 -8.8 °C -14.6 °C 34533.8 hPa SE 2.6 km/h 18.2 km/h 50 % 0 mm
15:02 -8.7 °C -15 °C 34533.8 hPa Calm   18.2 km/h 47 % 0 mm
15:12 -8.6 °C -14.6 °C 34533.8 hPa SSW 7.7 km/h 15.6 km/h 49 % 0 mm
15:17 -8.6 °C -14.7 °C 34533.8 hPa Calm   18.2 km/h 48 % 0 mm
15:22 -8.4 °C -14.7 °C 34533.8 hPa SSW 7.7 km/h 18.2 km/h 47 % 0 mm
15:27 -8.4 °C -14.7 °C 34533.8 hPa Calm   18.2 km/h 47 % 0 mm
15:32 -8.2 °C -14.5 °C 34533.8 hPa East 2.6 km/h 18.2 km/h 47 % 0 mm
15:37 -8.4 °C -15.1 °C 34533.8 hPa ESE 5.1 km/h 12.9 km/h 45 % 0 mm
15:42 -8.4 °C -14.7 °C 34533.8 hPa ESE 7.7 km/h 12.9 km/h 47 % 0 mm
15:52 -8.7 °C -14.9 °C 34533.8 hPa Calm   25.9 km/h 47 % 0 mm
15:57 -8.5 °C -15.2 °C 34533.8 hPa ENE 5.1 km/h 25.9 km/h 45 % 0 mm
16:02 -8.4 °C -14.9 °C 34533.8 hPa East 2.6 km/h 25.9 km/h 46 % 0 mm
16:12 -8.3 °C -14.9 °C 34533.8 hPa East 10.3 km/h 15.6 km/h 45 % 0 mm
16:17 -8.4 °C -15.2 °C 34533.8 hPa SSE 2.6 km/h 15.6 km/h 44 % 0 mm
16:22 -8.2 °C -14.7 °C 34533.8 hPa South 2.6 km/h 20.8 km/h 46 % 0 mm
16:32 -8.2 °C -14.7 °C 34533.8 hPa East 15.6 km/h 20.8 km/h 46 % 0 mm
16:37 -8.3 °C -14.4 °C 34533.8 hPa NE 15.6 km/h 18.2 km/h 48 % 0 mm
16:42 -8.3 °C -15 °C 34533.8 hPa East 2.6 km/h 18.2 km/h 45 % 0 mm
16:47 -8.2 °C -14.7 °C 34533.8 hPa NE 2.6 km/h 20.8 km/h 46 % 0 mm
16:52 -8.3 °C -14.7 °C 34533.8 hPa NNE 12.9 km/h 20.8 km/h 47 % 0 mm
17:02 -8.4 °C -14.6 °C 34533.8 hPa ENE 2.6 km/h 23.3 km/h 48 % 0 mm
17:07 -8.4 °C -14.6 °C 34533.8 hPa North 7.7 km/h 23.3 km/h 48 % 0 mm
17:12 -8.3 °C -14.4 °C 34533.8 hPa NNE 18.2 km/h 23.3 km/h 48 % 0 mm
17:17 -8.3 °C -14.6 °C 34533.8 hPa NNW 15.6 km/h 20.8 km/h 47 % 0 mm
17:22 -8.4 °C -14.9 °C 34533.8 hPa ENE 5.1 km/h 23.3 km/h 46 % 0 mm
17:32 -8.3 °C -14.7 °C 34533.8 hPa ENE 5.1 km/h 23.3 km/h 47 % 0 mm
17:42 -8.3 °C -14.5 °C 34533.8 hPa West 2.6 km/h 20.8 km/h 48 % 0 mm
17:47 -8.4 °C -14.6 °C 34533.8 hPa NNE 5.1 km/h 20.8 km/h 48 % 0 mm
17:52 -8.6 °C -14.7 °C 34533.8 hPa Calm   15.6 km/h 48 % 0 mm
17:57 -8.6 °C -14.4 °C 34533.8 hPa Calm   12.9 km/h 50 % 0 mm
18:02 -8.5 °C -14.5 °C 34533.8 hPa NE 2.6 km/h 12.9 km/h 49 % 0 mm
18:12 -8.7 °C -14.5 °C 34520.3 hPa East 2.6 km/h 10.3 km/h 50 % 0 mm
18:17 -8.6 °C -14.7 °C 34520.3 hPa Calm   7.7 km/h 48 % 0 mm
18:22 -8.4 °C -14.8 °C 34520.3 hPa Calm   7.7 km/h 47 % 0 mm
18:32 -8.4 °C -14.8 °C 34520.3 hPa East 7.7 km/h 12.9 km/h 47 % 0 mm
18:37 -8.4 °C -14.8 °C 34520.3 hPa East 7.7 km/h 12.9 km/h 47 % 0 mm
18:42 -8.5 °C -14.7 °C 34520.3 hPa East 7.7 km/h 12.9 km/h 48 % 0 mm
18:52 -8.7 °C -14.6 °C 34520.3 hPa ENE 5.1 km/h 15.6 km/h 49 % 0 mm
18:57 -8.6 °C -14.1 °C 34520.3 hPa ENE 5.1 km/h 12.9 km/h 52 % 0 mm
19:02 -8.7 °C -14.3 °C 34520.3 hPa ENE 5.1 km/h 12.9 km/h 51 % 0 mm
19:07 -8.6 °C -14.3 °C 34520.3 hPa ENE 2.6 km/h 12.9 km/h 51 % 0 mm
19:12 -8.7 °C -14.3 °C 34510.1 hPa ENE 7.7 km/h 12.9 km/h 51 % 0 mm
19:17 -8.7 °C -14.2 °C 34520.3 hPa ENE 5.1 km/h 12.9 km/h 52 % 0 mm
19:22 -8.7 °C -14.2 °C 34510.1 hPa NE 7.7 km/h 10.3 km/h 52 % 0 mm
19:27 -8.8 °C -14.3 °C 34520.3 hPa ENE 5.1 km/h 10.3 km/h 52 % 0 mm
19:32 -8.8 °C -14.2 °C 34520.3 hPa ENE 5.1 km/h 18.2 km/h 53 % 0 mm
19:37 -8.9 °C -13.9 °C 34520.3 hPa Calm   18.2 km/h 55 % 0 mm
19:42 -9.1 °C -13.9 °C 34520.3 hPa ENE 5.1 km/h 18.2 km/h 56 % 0 mm
19:47 -9.1 °C -14.1 °C 34520.3 hPa East 7.7 km/h 10.3 km/h 55 % 0 mm
19:52 -9.3 °C -14.1 °C 34520.3 hPa ENE 2.6 km/h 10.3 km/h 56 % 0 mm
19:57 -9.3 °C -14.2 °C 34520.3 hPa ENE 2.6 km/h 10.3 km/h 56 % 0 mm
20:02 -9.4 °C -14 °C 34520.3 hPa East 2.6 km/h 10.3 km/h 58 % 0 mm
20:12 -9.7 °C -14.1 °C 34520.3 hPa ENE 5.1 km/h 7.7 km/h 59 % 0 mm
20:17 -9.7 °C -14.3 °C 34520.3 hPa ENE 2.6 km/h 5.1 km/h 58 % 0 mm
20:22 -9.8 °C -14.2 °C 34520.3 hPa NE 5.1 km/h 5.1 km/h 59 % 0 mm
20:32 -9.9 °C -14.4 °C 34520.3 hPa NE 5.1 km/h 5.1 km/h 58 % 0 mm
20:37 -9.9 °C -14.4 °C 34520.3 hPa NE 2.6 km/h 5.1 km/h 58 % 0 mm
20:42 -9.9 °C -14.4 °C 34520.3 hPa NE 5.1 km/h 5.1 km/h 58 % 0 mm
20:47 -10.2 °C -14.3 °C 34520.3 hPa NNE 7.7 km/h 7.7 km/h 61 % 0 mm
20:52 -10.3 °C -14.4 °C 34533.8 hPa NNE 2.6 km/h 5.1 km/h 61 % 0 mm
20:57 -10.3 °C -14.4 °C 34533.8 hPa Calm   7.7 km/h 61 % 0 mm
21:02 -10.5 °C -14.3 °C 34533.8 hPa Calm   7.7 km/h 63 % 0 mm
21:12 -10.7 °C -14.4 °C 34533.8 hPa Calm   7.7 km/h 64 % 0 mm
21:17 -10.9 °C -14.4 °C 34533.8 hPa Calm   2.6 km/h 65 % 0 mm
21:22 -10.9 °C -14.4 °C 34544 hPa Calm     65 % 0 mm
21:32 -11.1 °C -14.5 °C 34544 hPa Calm     66 % 0 mm
21:37 -11.3 °C -14.4 °C 34544 hPa NW 2.6 km/h 2.6 km/h 68 % 0 mm
21:42 -11.5 °C -14.4 °C 34554.1 hPa Calm   2.6 km/h 70 % 0 mm
21:47 -11.5 °C -14.4 °C 34554.1 hPa Calm   5.1 km/h 70 % 0 mm
21:52 -11.6 °C -14.4 °C 34554.1 hPa Calm   5.1 km/h 71 % 0 mm
21:57 -11.6 °C -14.4 °C 34554.1 hPa Calm     71 % 0 mm
22:02 -11.7 °C -14.5 °C 34554.1 hPa Calm     71 % 0 mm
22:12 -11.4 °C -14.5 °C 34554.1 hPa Calm     69 % 0 mm
22:17 -11.3 °C -14.5 °C 34554.1 hPa Calm     68 % 0 mm
22:22 -11.4 °C -14.6 °C 34554.1 hPa Calm     68 % 0 mm
22:32 -11.6 °C -14.6 °C 34554.1 hPa Calm     70 % 0 mm
22:37 -11.7 °C -14.6 °C 34554.1 hPa NW 2.6 km/h   71 % 0 mm
22:42 -11.9 °C -14.6 °C 34554.1 hPa WNW 5.1 km/h 5.1 km/h 72 % 0 mm
22:52 -11.9 °C -14.6 °C 34554.1 hPa WNW 2.6 km/h 5.1 km/h 72 % 0 mm
22:57 -11.9 °C -14.5 °C 34554.1 hPa NNW 2.6 km/h 5.1 km/h 73 % 0 mm
23:02 -12.1 °C -14.5 °C 34544 hPa North 2.6 km/h 5.1 km/h 74 % 0 mm
23:12 -12 °C -14.4 °C 34554.1 hPa NNW 2.6 km/h 5.1 km/h 74 % 0 mm
23:22 -12 °C -14.4 °C 34554.1 hPa NNE 2.6 km/h 5.1 km/h 74 % 0 mm
23:27 -12.1 °C -14.5 °C 34554.1 hPa NNE 7.7 km/h 7.7 km/h 74 % 0 mm
23:32 -11.9 °C -14.5 °C 34554.1 hPa North 7.7 km/h 7.7 km/h 73 % 0 mm
23:37 -11.8 °C -14.4 °C 34554.1 hPa NNE 10.3 km/h 18.2 km/h 72 % 0 mm
23:42 -11.6 °C -14.4 °C 34554.1 hPa NE 5.1 km/h 18.2 km/h 71 % 0 mm
23:47 -11.6 °C -14.5 °C 34554.1 hPa East 2.6 km/h 18.2 km/h 70 % 0 mm
23:52 -11.7 °C -14.5 °C 34554.1 hPa ENE 5.1 km/h 18.2 km/h 71 % 0 mm
23:57 -11.8 °C -14.4 °C 34567.7 hPa Calm   10.3 km/h 72 % 0 mm
Meteo18
Compliments of Weather Underground - 4 mb

Script developed by  Jim McMurry - jmcmurry@mwt.net Adapted for the template by  Wim van der Kuil - Leuven-Template.eu

You find our weather info also at:

European Weather Network

Weather Underground

Equipment we use:

Weather-station
Davis Vue

Weather-program
Meteobridge

Weather-server
Raspberry PI 2 B+

Provider
1 and 1

Davis Vue

Meteobridge

Raspberry PI 2 B+

1 and 1